createdAt,value
2023-02-11T00:00:02.861Z,24.73
2023-02-11T00:00:12.970Z,24.72
2023-02-11T00:00:23.028Z,24.72
2023-02-11T00:00:33.062Z,24.72
2023-02-11T00:00:43.151Z,24.72
2023-02-11T00:00:53.170Z,24.73
2023-02-11T00:01:03.232Z,24.73
2023-02-11T00:01:13.263Z,24.73
2023-02-11T00:01:23.308Z,24.73
2023-02-11T00:01:33.353Z,24.72
2023-02-11T00:01:43.378Z,24.73
2023-02-11T00:01:53.486Z,24.73
2023-02-11T00:02:03.498Z,24.73
2023-02-11T00:02:13.729Z,24.73
2023-02-11T00:02:23.740Z,24.73
2023-02-11T00:02:33.824Z,24.72
2023-02-11T00:02:46.117Z,24.73
2023-02-11T00:02:53.846Z,24.69
2023-02-11T00:03:03.952Z,24.70
2023-02-11T00:03:13.965Z,24.71
2023-02-11T00:03:24.105Z,24.71
2023-02-11T00:03:34.146Z,24.71
2023-02-11T00:03:44.147Z,24.71
2023-02-11T00:03:54.213Z,24.71
2023-02-11T00:04:04.489Z,24.71
2023-02-11T00:04:14.518Z,24.71
2023-02-11T00:04:24.546Z,24.71
2023-02-11T00:04:34.580Z,24.71
2023-02-11T00:04:44.639Z,24.71
2023-02-11T00:04:54.658Z,24.71
2023-02-11T00:05:04.688Z,24.71
2023-02-11T00:05:14.727Z,24.72
2023-02-11T00:05:24.769Z,24.72
2023-02-11T00:05:34.811Z,24.72
2023-02-11T00:05:44.847Z,24.73
2023-02-11T00:05:54.897Z,24.72
2023-02-11T00:06:04.940Z,24.72
2023-02-11T00:06:14.971Z,24.72
2023-02-11T00:06:25.017Z,24.72
2023-02-11T00:06:35.037Z,24.72
2023-02-11T00:06:45.073Z,24.72
2023-02-11T00:06:55.106Z,24.72
2023-02-11T00:07:05.143Z,24.71
2023-02-11T00:07:15.180Z,24.72
2023-02-11T00:07:25.211Z,24.72
2023-02-11T00:07:35.245Z,24.72
2023-02-11T00:07:45.318Z,24.71
2023-02-11T00:07:55.349Z,24.72
2023-02-11T00:08:05.404Z,24.72
2023-02-11T00:08:15.437Z,24.72
2023-02-11T00:08:25.471Z,24.71
2023-02-11T00:08:35.510Z,24.71
2023-02-11T00:08:45.541Z,24.72
2023-02-11T00:08:55.580Z,24.72
2023-02-11T00:09:05.697Z,24.73
2023-02-11T00:09:15.711Z,24.72
2023-02-11T00:09:25.751Z,24.72
2023-02-11T00:09:35.780Z,24.73
2023-02-11T00:09:45.834Z,24.72
2023-02-11T00:09:55.868Z,24.72
2023-02-11T00:10:05.898Z,24.72
2023-02-11T00:10:15.935Z,24.73
2023-02-11T00:10:25.971Z,24.73
2023-02-11T00:10:36.004Z,24.73
2023-02-11T00:10:46.039Z,24.73
2023-02-11T00:10:56.071Z,24.72
2023-02-11T00:11:06.107Z,24.72
2023-02-11T00:11:16.148Z,24.72
2023-02-11T00:11:26.180Z,24.72
2023-02-11T00:11:36.207Z,24.72
2023-02-11T00:11:46.286Z,24.71
2023-02-11T00:11:56.313Z,24.72
2023-02-11T00:12:06.365Z,24.72
2023-02-11T00:12:16.462Z,24.72
2023-02-11T00:12:26.492Z,24.72
2023-02-11T00:12:36.525Z,24.73
2023-02-11T00:12:46.563Z,24.73
2023-02-11T00:12:56.600Z,24.72
2023-02-11T00:13:06.645Z,24.73
2023-02-11T00:13:16.669Z,24.72
2023-02-11T00:13:26.715Z,24.72
2023-02-11T00:13:36.760Z,24.72
2023-02-11T00:13:46.771Z,24.73
2023-02-11T00:13:56.797Z,24.72
2023-02-11T00:14:06.827Z,24.72
2023-02-11T00:14:16.849Z,24.73
2023-02-11T00:14:26.872Z,24.73
2023-02-11T00:14:36.896Z,24.73
2023-02-11T00:14:46.924Z,24.73
2023-02-11T00:14:56.944Z,24.72
2023-02-11T00:15:06.953Z,24.72
2023-02-11T00:15:16.983Z,24.72
2023-02-11T00:15:26.982Z,24.72
2023-02-11T00:15:37.022Z,24.73
2023-02-11T00:15:47.130Z,24.73
2023-02-11T00:15:57.159Z,24.72
2023-02-11T00:16:07.156Z,24.72
2023-02-11T00:16:17.488Z,24.73
2023-02-11T00:16:27.547Z,24.73
2023-02-11T00:16:37.679Z,24.73
2023-02-11T00:16:48.132Z,24.73
2023-02-11T00:16:58.043Z,24.72
2023-02-11T00:17:08.084Z,24.73
2023-02-11T00:17:18.083Z,24.73
2023-02-11T00:17:28.101Z,24.73
2023-02-11T00:17:38.104Z,24.73
2023-02-11T00:17:48.108Z,24.73
2023-02-11T00:17:58.111Z,24.74
2023-02-11T00:18:08.128Z,24.72
2023-02-11T00:18:18.133Z,24.73
2023-02-11T00:18:28.147Z,24.73
2023-02-11T00:18:38.159Z,24.73
2023-02-11T00:18:48.167Z,24.73
2023-02-11T00:18:58.178Z,24.72
2023-02-11T00:19:08.194Z,24.73
2023-02-11T00:19:18.306Z,24.73
2023-02-11T00:19:28.307Z,24.73
2023-02-11T00:19:38.562Z,24.73
2023-02-11T00:19:48.564Z,24.73
2023-02-11T00:19:58.690Z,24.73
2023-02-11T00:20:08.945Z,24.73
2023-02-11T00:20:19.063Z,24.74
2023-02-11T00:20:29.063Z,24.73
2023-02-11T00:20:39.394Z,24.73
2023-02-11T00:20:49.406Z,24.73
2023-02-11T00:20:59.533Z,24.73
2023-02-11T00:21:09.780Z,24.73
2023-02-11T00:21:19.785Z,24.73
2023-02-11T00:21:29.790Z,24.73
2023-02-11T00:21:39.801Z,24.73
2023-02-11T00:21:49.805Z,24.73
2023-02-11T00:21:59.825Z,24.73
2023-02-11T00:22:09.823Z,24.73
2023-02-11T00:22:19.849Z,24.73
2023-02-11T00:22:29.844Z,24.73
2023-02-11T00:22:39.861Z,24.73
2023-02-11T00:22:49.863Z,24.73
2023-02-11T00:22:59.880Z,24.73
2023-02-11T00:23:09.886Z,24.73
2023-02-11T00:23:19.900Z,24.73
2023-02-11T00:23:29.920Z,24.73
2023-02-11T00:23:39.921Z,24.74
2023-02-11T00:23:49.923Z,24.73
2023-02-11T00:24:00.187Z,24.73
2023-02-11T00:24:09.992Z,24.73
2023-02-11T00:24:20.112Z,24.73
2023-02-11T00:24:30.133Z,24.74
2023-02-11T00:24:40.254Z,24.74
2023-02-11T00:24:50.257Z,24.74
2023-02-11T00:25:00.373Z,24.73
2023-02-11T00:25:10.640Z,24.74
2023-02-11T00:25:20.765Z,24.74
2023-02-11T00:25:30.778Z,24.73
2023-02-11T00:25:41.033Z,24.74
2023-02-11T00:25:51.384Z,24.74
2023-02-11T00:26:01.079Z,24.73
2023-02-11T00:26:11.083Z,24.73
2023-02-11T00:26:21.102Z,24.74
2023-02-11T00:26:31.093Z,24.73
2023-02-11T00:26:41.089Z,24.74
2023-02-11T00:26:51.107Z,24.73
2023-02-11T00:27:01.115Z,24.74
2023-02-11T00:27:11.119Z,24.73
2023-02-11T00:27:21.141Z,24.73
2023-02-11T00:27:31.146Z,24.73
2023-02-11T00:27:41.159Z,24.74
2023-02-11T00:27:51.162Z,24.74
2023-02-11T00:28:01.200Z,24.73
2023-02-11T00:28:11.200Z,24.73
2023-02-11T00:28:21.197Z,24.74
2023-02-11T00:28:31.261Z,24.74
2023-02-11T00:28:41.317Z,24.73
2023-02-11T00:28:51.319Z,24.73
2023-02-11T00:29:01.334Z,24.74
2023-02-11T00:29:11.345Z,24.73
2023-02-11T00:29:21.348Z,24.73
2023-02-11T00:29:31.356Z,24.73
2023-02-11T00:29:41.396Z,24.73
2023-02-11T00:29:51.386Z,24.73
2023-02-11T00:30:01.398Z,24.74
2023-02-11T00:30:11.418Z,24.74
2023-02-11T00:30:21.427Z,24.75
2023-02-11T00:30:31.466Z,24.76
2023-02-11T00:30:41.596Z,24.75
2023-02-11T00:30:51.630Z,24.75
2023-02-11T00:31:01.674Z,24.75
2023-02-11T00:31:11.764Z,24.76
2023-02-11T00:31:21.816Z,24.76
2023-02-11T00:31:31.859Z,24.76
2023-02-11T00:31:41.961Z,24.76
2023-02-11T00:31:51.948Z,24.76
2023-02-11T00:32:02.316Z,24.76
2023-02-11T00:32:12.318Z,24.76
2023-02-11T00:32:22.335Z,24.76
2023-02-11T00:32:32.606Z,24.77
2023-02-11T00:32:42.653Z,24.77
2023-02-11T00:32:52.652Z,24.77
2023-02-11T00:33:03.029Z,24.77
2023-02-11T00:33:13.029Z,24.77
2023-02-11T00:33:23.154Z,24.77
2023-02-11T00:33:33.429Z,24.78
2023-02-11T00:33:43.440Z,24.77
2023-02-11T00:33:53.466Z,24.78
2023-02-11T00:34:03.467Z,24.78
2023-02-11T00:34:13.471Z,24.79
2023-02-11T00:34:23.598Z,24.78
2023-02-11T00:34:33.606Z,24.78
2023-02-11T00:34:43.736Z,24.78
2023-02-11T00:34:53.744Z,24.77
2023-02-11T00:35:03.747Z,24.77
2023-02-11T00:35:13.872Z,24.77
2023-02-11T00:35:23.997Z,24.77
2023-02-11T00:35:33.997Z,24.76
2023-02-11T00:35:44.265Z,24.77
2023-02-11T00:35:54.292Z,24.77
2023-02-11T00:36:04.288Z,24.77
2023-02-11T00:36:14.288Z,24.76
2023-02-11T00:36:24.299Z,24.77
2023-02-11T00:36:34.314Z,24.76
2023-02-11T00:36:44.323Z,24.76
2023-02-11T00:36:54.337Z,24.76
2023-02-11T00:37:04.341Z,24.76
2023-02-11T00:37:14.375Z,24.76
2023-02-11T00:37:24.359Z,24.76
2023-02-11T00:37:34.388Z,24.76
2023-02-11T00:37:44.388Z,24.77
2023-02-11T00:37:54.388Z,24.77
2023-02-11T00:38:04.399Z,24.78
2023-02-11T00:38:14.410Z,24.78
2023-02-11T00:38:24.416Z,24.78
2023-02-11T00:38:34.434Z,24.77
2023-02-11T00:38:44.455Z,24.77
2023-02-11T00:38:54.462Z,24.77
2023-02-11T00:39:04.471Z,24.77
2023-02-11T00:39:14.479Z,24.77
2023-02-11T00:39:24.474Z,24.77
2023-02-11T00:39:34.488Z,24.77
2023-02-11T00:39:44.484Z,24.77
2023-02-11T00:39:54.488Z,24.76
2023-02-11T00:40:06.733Z,24.76
2023-02-11T00:40:14.624Z,24.75
2023-02-11T00:40:24.737Z,24.74
2023-02-11T00:40:34.770Z,24.75
2023-02-11T00:40:44.758Z,24.75
2023-02-11T00:40:54.772Z,24.75
2023-02-11T00:41:04.811Z,24.75
2023-02-11T00:41:14.817Z,24.74
2023-02-11T00:41:24.823Z,24.75
2023-02-11T00:41:34.832Z,24.75
2023-02-11T00:41:44.859Z,24.74
2023-02-11T00:41:54.868Z,24.75
2023-02-11T00:42:04.894Z,24.75
2023-02-11T00:42:14.906Z,24.74
2023-02-11T00:42:24.886Z,24.74
2023-02-11T00:42:35.008Z,24.74
2023-02-11T00:42:45.012Z,24.73
2023-02-11T00:42:55.016Z,24.73
2023-02-11T00:43:05.028Z,24.74
2023-02-11T00:43:15.050Z,24.74
2023-02-11T00:43:25.298Z,24.74
2023-02-11T00:43:35.326Z,24.73
2023-02-11T00:43:45.314Z,24.74
2023-02-11T00:43:55.343Z,24.75
2023-02-11T00:44:05.335Z,24.73
2023-02-11T00:44:15.346Z,24.74
2023-02-11T00:44:25.370Z,24.74
2023-02-11T00:44:35.384Z,24.74
2023-02-11T00:44:45.370Z,24.74
2023-02-11T00:44:55.504Z,24.74
2023-02-11T00:45:05.775Z,24.73
2023-02-11T00:45:15.783Z,24.74
2023-02-11T00:45:25.801Z,24.73
2023-02-11T00:45:35.860Z,24.73
2023-02-11T00:45:45.935Z,24.73
2023-02-11T00:45:55.970Z,24.73
2023-02-11T00:46:06.022Z,24.73
2023-02-11T00:46:16.147Z,24.73
2023-02-11T00:46:26.134Z,24.74
2023-02-11T00:46:36.236Z,24.73
2023-02-11T00:46:46.414Z,24.74
2023-02-11T00:46:56.424Z,24.74
2023-02-11T00:47:06.471Z,24.72
2023-02-11T00:47:16.879Z,24.73
2023-02-11T00:47:26.879Z,24.72
2023-02-11T00:47:36.925Z,24.73
2023-02-11T00:47:46.944Z,24.73
2023-02-11T00:47:56.947Z,24.73
2023-02-11T00:48:06.965Z,24.72
2023-02-11T00:48:16.968Z,24.72
2023-02-11T00:48:26.976Z,24.73
2023-02-11T00:48:36.996Z,24.73
2023-02-11T00:48:47.010Z,24.73
2023-02-11T00:48:57.386Z,24.74
2023-02-11T00:49:07.385Z,24.74
2023-02-11T00:49:17.546Z,24.74
2023-02-11T00:49:27.803Z,24.73
2023-02-11T00:49:37.806Z,24.74
2023-02-11T00:49:47.805Z,24.73
2023-02-11T00:49:57.807Z,24.74
2023-02-11T00:50:07.818Z,24.73
2023-02-11T00:50:17.827Z,24.74
2023-02-11T00:50:27.829Z,24.74
2023-02-11T00:50:37.849Z,24.74
2023-02-11T00:50:47.849Z,24.74
2023-02-11T00:50:57.848Z,24.73
2023-02-11T00:51:07.871Z,24.73
2023-02-11T00:51:17.855Z,24.74
2023-02-11T00:51:27.875Z,24.74
2023-02-11T00:51:37.861Z,24.74
2023-02-11T00:51:47.877Z,24.74
2023-02-11T00:51:57.892Z,24.75
2023-02-11T00:52:07.895Z,24.75
2023-02-11T00:52:17.897Z,24.74
2023-02-11T00:52:27.922Z,24.75
2023-02-11T00:52:37.922Z,24.75
2023-02-11T00:52:47.932Z,24.75
2023-02-11T00:52:57.965Z,24.75
2023-02-11T00:53:07.966Z,24.75
2023-02-11T00:53:17.960Z,24.75
2023-02-11T00:53:27.982Z,24.75
2023-02-11T00:53:37.990Z,24.75
2023-02-11T00:53:47.992Z,24.75
2023-02-11T00:53:58.027Z,24.76
2023-02-11T00:54:08.019Z,24.76
2023-02-11T00:54:18.025Z,24.76
2023-02-11T00:54:29.994Z,24.76
2023-02-11T00:54:38.044Z,24.74
2023-02-11T00:54:48.047Z,24.75
2023-02-11T00:54:58.061Z,24.74
2023-02-11T00:55:08.078Z,24.75
2023-02-11T00:55:18.080Z,24.75
2023-02-11T00:55:28.350Z,24.75
2023-02-11T00:55:38.470Z,24.75
2023-02-11T00:55:48.920Z,24.75
2023-02-11T00:55:58.763Z,24.75
2023-02-11T00:56:08.777Z,24.76
2023-02-11T00:56:18.775Z,24.77
2023-02-11T00:56:28.797Z,24.76
2023-02-11T00:56:38.803Z,24.76
2023-02-11T00:56:48.806Z,24.76
2023-02-11T00:56:58.820Z,24.76
2023-02-11T00:57:08.853Z,24.76
2023-02-11T00:57:18.841Z,24.76
2023-02-11T00:57:28.846Z,24.76
2023-02-11T00:57:38.845Z,24.75
2023-02-11T00:57:48.844Z,24.76
2023-02-11T00:57:58.976Z,24.76
2023-02-11T00:58:08.987Z,24.76
2023-02-11T00:58:18.995Z,24.76
2023-02-11T00:58:29.009Z,24.76
2023-02-11T00:58:39.013Z,24.75
2023-02-11T00:58:49.273Z,24.74
2023-02-11T00:58:59.278Z,24.75
2023-02-11T00:59:09.300Z,24.74
2023-02-11T00:59:19.295Z,24.74
2023-02-11T00:59:29.297Z,24.72
2023-02-11T00:59:39.422Z,24.71
2023-02-11T00:59:49.440Z,24.69
2023-02-11T00:59:59.436Z,24.69
2023-02-11T01:00:09.553Z,24.68
2023-02-11T01:00:19.684Z,24.68
2023-02-11T01:00:29.705Z,24.68
2023-02-11T01:00:39.712Z,24.69
2023-02-11T01:00:49.737Z,24.68
2023-02-11T01:00:59.810Z,24.68
2023-02-11T01:01:09.897Z,24.69
2023-02-11T01:01:19.925Z,24.68
2023-02-11T01:01:29.992Z,24.69
2023-02-11T01:01:40.158Z,24.69
2023-02-11T01:01:50.186Z,24.68
2023-02-11T01:02:00.131Z,24.69
2023-02-11T01:02:10.125Z,24.69
2023-02-11T01:02:20.136Z,24.69
2023-02-11T01:02:30.144Z,24.68
2023-02-11T01:02:40.144Z,24.69
2023-02-11T01:02:50.173Z,24.69
2023-02-11T01:03:00.158Z,24.68
2023-02-11T01:03:10.222Z,24.69
2023-02-11T01:03:20.217Z,24.68
2023-02-11T01:03:30.223Z,24.69
2023-02-11T01:03:40.353Z,24.70
2023-02-11T01:03:50.364Z,24.69
2023-02-11T01:04:00.362Z,24.68
2023-02-11T01:04:10.379Z,24.69
2023-02-11T01:04:20.506Z,24.69
2023-02-11T01:04:30.636Z,24.69
2023-02-11T01:04:40.643Z,24.70
2023-02-11T01:04:50.674Z,24.69
2023-02-11T01:05:00.746Z,24.69
2023-02-11T01:05:10.830Z,24.69
2023-02-11T01:05:20.849Z,24.68
2023-02-11T01:05:30.872Z,24.68
2023-02-11T01:05:40.988Z,24.68
2023-02-11T01:05:51.212Z,24.69
2023-02-11T01:06:01.006Z,24.68
2023-02-11T01:06:11.264Z,24.67
2023-02-11T01:06:21.389Z,24.68
2023-02-11T01:06:31.390Z,24.67
2023-02-11T01:06:41.644Z,24.68
2023-02-11T01:06:51.645Z,24.68
2023-02-11T01:07:01.648Z,24.68
2023-02-11T01:07:11.652Z,24.68
2023-02-11T01:07:21.663Z,24.67
2023-02-11T01:07:31.667Z,24.68
2023-02-11T01:07:41.670Z,24.68
2023-02-11T01:07:51.679Z,24.67
2023-02-11T01:08:01.690Z,24.67
2023-02-11T01:08:11.724Z,24.67
2023-02-11T01:08:21.724Z,24.67
2023-02-11T01:08:31.732Z,24.67
2023-02-11T01:08:41.743Z,24.67
2023-02-11T01:08:51.762Z,24.67
2023-02-11T01:09:01.785Z,24.65
2023-02-11T01:09:11.772Z,24.66
2023-02-11T01:09:21.779Z,24.65
2023-02-11T01:09:31.790Z,24.65
2023-02-11T01:09:41.780Z,24.66
2023-02-11T01:09:51.791Z,24.65
2023-02-11T01:10:01.916Z,24.65
2023-02-11T01:10:11.908Z,24.65
2023-02-11T01:10:21.941Z,24.65
2023-02-11T01:10:31.942Z,24.65
2023-02-11T01:10:42.199Z,24.65
2023-02-11T01:10:52.211Z,24.65
2023-02-11T01:11:02.222Z,24.64
2023-02-11T01:11:12.227Z,24.65
2023-02-11T01:11:22.285Z,24.65
2023-02-11T01:11:32.289Z,24.65
2023-02-11T01:11:42.292Z,24.65
2023-02-11T01:11:52.310Z,24.65
2023-02-11T01:12:02.428Z,24.65
2023-02-11T01:12:12.448Z,24.65
2023-02-11T01:12:22.725Z,24.65
2023-02-11T01:12:35.949Z,24.65
2023-02-11T01:12:42.891Z,24.62
2023-02-11T01:12:52.897Z,24.62
2023-02-11T01:13:02.895Z,24.62
2023-02-11T01:13:12.898Z,24.63
2023-02-11T01:13:23.021Z,24.64
2023-02-11T01:13:33.036Z,24.63
2023-02-11T01:13:43.060Z,24.64
2023-02-11T01:13:53.056Z,24.63
2023-02-11T01:14:03.209Z,24.64
2023-02-11T01:14:13.185Z,24.63
2023-02-11T01:14:23.321Z,24.65
2023-02-11T01:14:33.320Z,24.64
2023-02-11T01:14:43.328Z,24.63
2023-02-11T01:14:53.320Z,24.63
2023-02-11T01:15:03.441Z,24.63
2023-02-11T01:15:13.440Z,24.63
2023-02-11T01:15:23.570Z,24.63
2023-02-11T01:15:33.693Z,24.63
2023-02-11T01:15:43.629Z,24.63
2023-02-11T01:15:53.940Z,24.64
2023-02-11T01:16:03.894Z,24.64
2023-02-11T01:16:13.997Z,24.63
2023-02-11T01:16:24.068Z,24.63
2023-02-11T01:16:34.340Z,24.63
2023-02-11T01:16:44.335Z,24.62
2023-02-11T01:16:54.341Z,24.63
2023-02-11T01:17:04.728Z,24.64
2023-02-11T01:17:14.744Z,24.63
2023-02-11T01:17:24.760Z,24.62
2023-02-11T01:17:34.760Z,24.63
2023-02-11T01:17:44.757Z,24.63
2023-02-11T01:17:54.761Z,24.62
2023-02-11T01:18:04.893Z,24.61
2023-02-11T01:18:14.896Z,24.63
2023-02-11T01:18:24.916Z,24.63
2023-02-11T01:18:34.904Z,24.61
2023-02-11T01:18:45.168Z,24.62
2023-02-11T01:18:55.168Z,24.62
2023-02-11T01:19:05.281Z,24.61
2023-02-11T01:19:15.547Z,24.61
2023-02-11T01:19:25.551Z,24.62
2023-02-11T01:19:35.564Z,24.62
2023-02-11T01:19:45.954Z,24.61
2023-02-11T01:19:55.948Z,24.61
2023-02-11T01:20:05.953Z,24.61
2023-02-11T01:20:15.976Z,24.62
2023-02-11T01:20:25.976Z,24.61
2023-02-11T01:20:35.979Z,24.62
2023-02-11T01:20:46.104Z,24.61
2023-02-11T01:20:56.111Z,24.62
2023-02-11T01:21:06.123Z,24.61
2023-02-11T01:21:16.140Z,24.61
2023-02-11T01:21:26.394Z,24.61
2023-02-11T01:21:36.393Z,24.62
2023-02-11T01:21:46.516Z,24.61
2023-02-11T01:21:56.776Z,24.61
2023-02-11T01:22:06.790Z,24.61
2023-02-11T01:22:16.797Z,24.60
2023-02-11T01:22:26.798Z,24.60
2023-02-11T01:22:36.811Z,24.60
2023-02-11T01:22:46.818Z,24.60
2023-02-11T01:22:56.821Z,24.61
2023-02-11T01:23:06.940Z,24.61
2023-02-11T01:23:16.945Z,24.61
2023-02-11T01:23:26.962Z,24.61
2023-02-11T01:23:37.245Z,24.60
2023-02-11T01:23:47.251Z,24.60
2023-02-11T01:23:57.251Z,24.60
2023-02-11T01:24:07.637Z,24.59
2023-02-11T01:24:17.653Z,24.60
2023-02-11T01:24:27.673Z,24.60
2023-02-11T01:24:37.705Z,24.60
2023-02-11T01:24:47.695Z,24.59
2023-02-11T01:24:57.829Z,24.59
2023-02-11T01:25:07.834Z,24.59
2023-02-11T01:25:17.838Z,24.59
2023-02-11T01:25:27.835Z,24.59
2023-02-11T01:25:37.961Z,24.60
2023-02-11T01:25:48.347Z,24.59
2023-02-11T01:25:58.259Z,24.59
2023-02-11T01:26:08.263Z,24.59
2023-02-11T01:26:18.528Z,24.58
2023-02-11T01:26:28.540Z,24.59
2023-02-11T01:26:38.560Z,24.59
2023-02-11T01:26:48.570Z,24.59
2023-02-11T01:26:58.574Z,24.58
2023-02-11T01:27:08.585Z,24.58
2023-02-11T01:27:18.584Z,24.58
2023-02-11T01:27:28.601Z,24.59
2023-02-11T01:27:38.602Z,24.59
2023-02-11T01:27:48.614Z,24.58
2023-02-11T01:27:58.678Z,24.58
2023-02-11T01:28:08.682Z,24.58
2023-02-11T01:28:18.851Z,24.59
2023-02-11T01:28:28.827Z,24.58
2023-02-11T01:28:38.896Z,24.58
2023-02-11T01:28:48.934Z,24.58
2023-02-11T01:28:59.055Z,24.57
2023-02-11T01:29:09.234Z,24.58
2023-02-11T01:29:19.242Z,24.58
2023-02-11T01:29:29.251Z,24.58
2023-02-11T01:29:39.626Z,24.58
2023-02-11T01:29:49.626Z,24.58
2023-02-11T01:29:59.631Z,24.58
2023-02-11T01:30:09.631Z,24.57
2023-02-11T01:30:19.763Z,24.57
2023-02-11T01:30:29.776Z,24.57
2023-02-11T01:30:39.848Z,24.58
2023-02-11T01:30:49.871Z,24.57
2023-02-11T01:30:59.933Z,24.57
2023-02-11T01:31:10.012Z,24.58
2023-02-11T01:31:20.330Z,24.58
2023-02-11T01:31:30.447Z,24.57
2023-02-11T01:31:40.437Z,24.57
2023-02-11T01:31:50.487Z,24.57
2023-02-11T01:32:00.529Z,24.56
2023-02-11T01:32:10.598Z,24.57
2023-02-11T01:32:20.687Z,24.57
2023-02-11T01:32:30.745Z,24.56
2023-02-11T01:32:40.855Z,24.57
2023-02-11T01:32:50.860Z,24.57
2023-02-11T01:33:00.995Z,24.57
2023-02-11T01:33:10.986Z,24.56
2023-02-11T01:33:21.124Z,24.56
2023-02-11T01:33:31.374Z,24.56
2023-02-11T01:33:41.377Z,24.56
2023-02-11T01:33:51.381Z,24.56
2023-02-11T01:34:01.408Z,24.55
2023-02-11T01:34:11.399Z,24.55
2023-02-11T01:34:21.416Z,24.55
2023-02-11T01:34:31.419Z,24.55
2023-02-11T01:34:41.437Z,24.55
2023-02-11T01:34:51.430Z,24.55
2023-02-11T01:35:01.439Z,24.55
2023-02-11T01:35:11.460Z,24.55
2023-02-11T01:35:21.464Z,24.55
2023-02-11T01:35:31.467Z,24.54
2023-02-11T01:35:41.473Z,24.54
2023-02-11T01:35:51.820Z,24.54
2023-02-11T01:36:01.590Z,24.54
2023-02-11T01:36:11.575Z,24.54
2023-02-11T01:36:21.955Z,24.55
2023-02-11T01:36:31.971Z,24.54
2023-02-11T01:36:41.996Z,24.54
2023-02-11T01:36:51.990Z,24.55
2023-02-11T01:37:01.997Z,24.53
2023-02-11T01:37:12.012Z,24.54
2023-02-11T01:37:22.015Z,24.54
2023-02-11T01:37:32.028Z,24.54
2023-02-11T01:37:42.068Z,24.54
2023-02-11T01:37:52.053Z,24.53
2023-02-11T01:38:02.451Z,24.53
2023-02-11T01:38:12.447Z,24.54
2023-02-11T01:38:22.582Z,24.53
2023-02-11T01:38:32.847Z,24.53
2023-02-11T01:38:42.863Z,24.53
2023-02-11T01:38:52.873Z,24.53
2023-02-11T01:39:02.882Z,24.53
2023-02-11T01:39:12.894Z,24.52
2023-02-11T01:39:22.928Z,24.52
2023-02-11T01:39:32.922Z,24.52
2023-02-11T01:39:42.936Z,24.53
2023-02-11T01:39:52.928Z,24.53
2023-02-11T01:40:02.949Z,24.53
2023-02-11T01:40:12.951Z,24.53
2023-02-11T01:40:22.969Z,24.53
2023-02-11T01:40:32.965Z,24.53
2023-02-11T01:40:42.978Z,24.53
2023-02-11T01:40:52.997Z,24.52
2023-02-11T01:41:03.002Z,24.53
2023-02-11T01:41:13.007Z,24.52
2023-02-11T01:41:23.030Z,24.52
2023-02-11T01:41:33.029Z,24.53
2023-02-11T01:41:43.048Z,24.53
2023-02-11T01:41:53.052Z,24.52
2023-02-11T01:42:03.093Z,24.52
2023-02-11T01:42:13.126Z,24.53
2023-02-11T01:42:23.112Z,24.53
2023-02-11T01:42:33.121Z,24.52
2023-02-11T01:42:43.139Z,24.53
2023-02-11T01:42:53.160Z,24.53
2023-02-11T01:43:03.151Z,24.53
2023-02-11T01:43:13.162Z,24.52
2023-02-11T01:43:23.290Z,24.53
2023-02-11T01:43:33.300Z,24.53
2023-02-11T01:43:43.536Z,24.53
2023-02-11T01:43:53.539Z,24.53
2023-02-11T01:44:03.564Z,24.53
2023-02-11T01:44:13.569Z,24.53
2023-02-11T01:44:23.576Z,24.52
2023-02-11T01:44:33.592Z,24.53
2023-02-11T01:44:43.580Z,24.53
2023-02-11T01:44:53.585Z,24.52
2023-02-11T01:45:03.720Z,24.53
2023-02-11T01:45:13.723Z,24.52
2023-02-11T01:45:23.989Z,24.52
2023-02-11T01:45:33.999Z,24.52
2023-02-11T01:45:44.119Z,24.52
2023-02-11T01:45:54.392Z,24.51
2023-02-11T01:46:04.450Z,24.52
2023-02-11T01:46:14.530Z,24.52
2023-02-11T01:46:24.871Z,24.52
2023-02-11T01:46:34.983Z,24.52
2023-02-11T01:46:45.046Z,24.51
2023-02-11T01:46:55.304Z,24.51
2023-02-11T01:47:05.426Z,24.51
2023-02-11T01:47:15.434Z,24.51
2023-02-11T01:47:25.689Z,24.52
2023-02-11T01:47:35.714Z,24.51
2023-02-11T01:47:45.693Z,24.51
2023-02-11T01:47:55.700Z,24.51
2023-02-11T01:48:05.720Z,24.51
2023-02-11T01:48:15.729Z,24.50
2023-02-11T01:48:25.744Z,24.50
2023-02-11T01:48:35.748Z,24.51
2023-02-11T01:48:45.757Z,24.51
2023-02-11T01:48:55.875Z,24.50
2023-02-11T01:49:06.210Z,24.51
2023-02-11T01:49:16.327Z,24.51
2023-02-11T01:49:26.443Z,24.51
2023-02-11T01:49:36.690Z,24.51
2023-02-11T01:49:46.686Z,24.51
2023-02-11T01:49:56.689Z,24.52
2023-02-11T01:50:07.073Z,24.51
2023-02-11T01:50:17.102Z,24.51
2023-02-11T01:50:27.093Z,24.51
2023-02-11T01:50:37.102Z,24.50
2023-02-11T01:50:47.110Z,24.50
2023-02-11T01:50:57.121Z,24.50
2023-02-11T01:51:07.239Z,24.51
2023-02-11T01:51:17.248Z,24.50
2023-02-11T01:51:27.368Z,24.51
2023-02-11T01:51:37.369Z,24.51
2023-02-11T01:51:47.503Z,24.51
2023-02-11T01:51:57.501Z,24.52
2023-02-11T01:52:07.631Z,24.52
2023-02-11T01:52:17.903Z,24.52
2023-02-11T01:52:27.912Z,24.52
2023-02-11T01:52:37.933Z,24.51
2023-02-11T01:52:47.933Z,24.52
2023-02-11T01:52:57.940Z,24.51
2023-02-11T01:53:08.060Z,24.51
2023-02-11T01:53:18.058Z,24.51
2023-02-11T01:53:28.197Z,24.51
2023-02-11T01:53:38.217Z,24.51
2023-02-11T01:53:48.335Z,24.51
2023-02-11T01:53:58.331Z,24.51
2023-02-11T01:54:08.334Z,24.51
2023-02-11T01:54:18.365Z,24.51
2023-02-11T01:54:28.354Z,24.51
2023-02-11T01:54:38.365Z,24.51
2023-02-11T01:54:48.371Z,24.51
2023-02-11T01:54:58.373Z,24.51
2023-02-11T01:55:08.507Z,24.51
2023-02-11T01:55:18.506Z,24.50
2023-02-11T01:55:28.624Z,24.51
2023-02-11T01:55:38.755Z,24.51
2023-02-11T01:55:49.053Z,24.51
2023-02-11T01:55:58.857Z,24.51
2023-02-11T01:56:09.111Z,24.51
2023-02-11T01:56:19.114Z,24.51
2023-02-11T01:56:29.118Z,24.50
2023-02-11T01:56:39.120Z,24.50
2023-02-11T01:56:49.135Z,24.51
2023-02-11T01:56:59.139Z,24.50
2023-02-11T01:57:09.156Z,24.50
2023-02-11T01:57:19.161Z,24.50
2023-02-11T01:57:29.176Z,24.51
2023-02-11T01:57:39.173Z,24.51
2023-02-11T01:57:49.176Z,24.51
2023-02-11T01:57:59.182Z,24.50
2023-02-11T01:58:09.185Z,24.50
2023-02-11T01:58:19.195Z,24.49
2023-02-11T01:58:29.197Z,24.50
2023-02-11T01:58:39.197Z,24.50
2023-02-11T01:58:49.202Z,24.50
2023-02-11T01:58:59.202Z,24.49
2023-02-11T01:59:09.331Z,24.49
2023-02-11T01:59:19.340Z,24.50
2023-02-11T01:59:29.333Z,24.49
2023-02-11T01:59:39.338Z,24.49
2023-02-11T01:59:49.343Z,24.50
2023-02-11T01:59:59.355Z,24.50
2023-02-11T02:00:09.637Z,24.49
2023-02-11T02:00:19.669Z,24.49
2023-02-11T02:00:29.664Z,24.50
2023-02-11T02:00:39.675Z,24.48
2023-02-11T02:00:49.682Z,24.49
2023-02-11T02:00:59.676Z,24.49
2023-02-11T02:01:09.824Z,24.49
2023-02-11T02:01:19.859Z,24.48
2023-02-11T02:01:29.995Z,24.49
2023-02-11T02:01:39.952Z,24.49
2023-02-11T02:01:50.309Z,24.49
2023-02-11T02:02:00.404Z,24.49
2023-02-11T02:02:10.441Z,24.48
2023-02-11T02:02:20.726Z,24.49
2023-02-11T02:02:30.825Z,24.49
2023-02-11T02:02:40.859Z,24.49
2023-02-11T02:02:51.105Z,24.48
2023-02-11T02:03:01.102Z,24.49
2023-02-11T02:03:11.109Z,24.48
2023-02-11T02:03:21.143Z,24.49
2023-02-11T02:03:31.185Z,24.48
2023-02-11T02:03:41.231Z,24.49
2023-02-11T02:03:51.265Z,24.49
2023-02-11T02:04:01.394Z,24.49
2023-02-11T02:04:11.308Z,24.49
2023-02-11T02:04:21.334Z,24.49
2023-02-11T02:04:31.327Z,24.49
2023-02-11T02:04:41.333Z,24.49
2023-02-11T02:04:51.456Z,24.49
2023-02-11T02:05:01.480Z,24.49
2023-02-11T02:05:11.490Z,24.49
2023-02-11T02:05:21.506Z,24.50
2023-02-11T02:05:31.633Z,24.49
2023-02-11T02:05:41.756Z,24.49
2023-02-11T02:05:52.187Z,24.48
2023-02-11T02:06:01.786Z,24.49
2023-02-11T02:06:11.795Z,24.49
2023-02-11T02:06:21.805Z,24.47
2023-02-11T02:06:31.809Z,24.48
2023-02-11T02:06:41.819Z,24.48
2023-02-11T02:06:51.827Z,24.48
2023-02-11T02:07:01.840Z,24.48
2023-02-11T02:07:11.838Z,24.49
2023-02-11T02:07:21.854Z,24.48
2023-02-11T02:07:31.873Z,24.48
2023-02-11T02:07:41.878Z,24.48
2023-02-11T02:07:51.891Z,24.48
2023-02-11T02:08:01.930Z,24.47
2023-02-11T02:08:11.914Z,24.48
2023-02-11T02:08:21.949Z,24.47
2023-02-11T02:08:31.959Z,24.47
2023-02-11T02:08:41.948Z,24.47
2023-02-11T02:08:51.955Z,24.47
2023-02-11T02:09:01.955Z,24.48
2023-02-11T02:09:11.969Z,24.48
2023-02-11T02:09:21.973Z,24.48